createdAt,value
2022-08-27T00:02:04.878Z,100930.09
2022-08-27T00:04:32.479Z,100940.78
2022-08-27T00:06:59.123Z,100933.00
2022-08-27T00:09:27.112Z,100927.81
2022-08-27T00:11:54.541Z,100941.78
2022-08-27T00:14:21.753Z,100943.25
2022-08-27T00:16:48.849Z,100931.28
2022-08-27T00:19:15.339Z,100929.63
2022-08-27T00:21:41.863Z,100925.94
2022-08-27T00:24:08.980Z,100924.78
2022-08-27T00:26:40.141Z,100919.13
2022-08-27T00:29:09.529Z,100932.25
2022-08-27T00:31:36.754Z,100925.09
2022-08-27T00:34:03.507Z,100933.88
2022-08-27T00:36:31.227Z,100924.97
2022-08-27T00:38:57.685Z,100924.50
2022-08-27T00:41:24.369Z,100916.41
2022-08-27T00:43:59.654Z,100930.47
2022-08-27T00:46:43.697Z,100927.72
2022-08-27T00:49:18.965Z,100927.25
2022-08-27T00:52:02.972Z,100935.53
2022-08-27T00:54:29.822Z,100921.06
2022-08-27T00:56:58.410Z,100913.28
2022-08-27T00:59:29.296Z,100921.06
2022-08-27T01:02:14.786Z,100923.84
2022-08-27T01:04:44.555Z,100939.28
2022-08-27T01:07:11.692Z,100942.56
2022-08-27T01:09:39.321Z,100942.59
2022-08-27T01:12:11.818Z,100945.31
2022-08-27T01:14:39.886Z,100947.31
2022-08-27T01:17:09.229Z,100953.31
2022-08-27T01:19:50.406Z,100953.63
2022-08-27T01:22:57.258Z,100950.53
2022-08-27T01:25:25.435Z,100941.75
2022-08-27T01:27:55.830Z,100955.59
2022-08-27T01:30:23.887Z,100961.13
2022-08-27T01:32:51.077Z,100949.44
2022-08-27T01:35:18.061Z,100956.44
2022-08-27T01:37:49.356Z,100961.81
2022-08-27T01:40:20.373Z,100955.50
2022-08-27T01:42:50.124Z,100951.44
2022-08-27T01:45:33.188Z,100967.31
2022-08-27T01:48:00.870Z,100955.53
2022-08-27T01:50:31.832Z,100957.13
2022-08-27T01:53:03.172Z,100960.88
2022-08-27T01:55:29.817Z,100953.91
2022-08-27T01:57:56.668Z,100960.22
2022-08-27T02:00:28.238Z,100960.22
2022-08-27T02:02:56.526Z,100968.31
2022-08-27T02:05:48.766Z,100957.03
2022-08-27T02:08:17.104Z,100963.50
2022-08-27T02:10:46.404Z,100963.03
2022-08-27T02:13:13.465Z,100964.00
2022-08-27T02:15:41.889Z,100966.41
2022-08-27T02:18:12.003Z,100974.50
2022-08-27T02:20:39.495Z,100966.56
2022-08-27T02:23:06.700Z,100964.78
2022-08-27T02:25:33.535Z,100977.47
2022-08-27T02:28:02.012Z,100969.69
2022-08-27T02:30:32.165Z,100972.25
2022-08-27T02:33:02.718Z,100971.63
2022-08-27T02:35:34.327Z,100968.56
2022-08-27T02:38:02.021Z,100976.34
2022-08-27T02:40:29.490Z,100971.78
2022-08-27T02:42:56.030Z,100973.41
2022-08-27T02:45:23.013Z,100971.75
2022-08-27T02:47:49.736Z,100982.16
2022-08-27T02:50:17.573Z,100986.69
2022-08-27T02:52:46.406Z,100988.16
2022-08-27T02:55:14.440Z,100985.38
2022-08-27T02:57:43.997Z,100980.84
2022-08-27T03:00:13.738Z,100980.84
2022-08-27T03:02:40.441Z,100980.38
2022-08-27T03:05:10.973Z,100978.59
2022-08-27T03:07:38.349Z,100975.19
2022-08-27T03:10:06.801Z,100981.50
2022-08-27T03:12:37.430Z,100976.16
2022-08-27T03:15:07.658Z,100977.75
2022-08-27T03:17:53.317Z,100974.19
2022-08-27T03:20:21.626Z,100967.53
2022-08-27T03:22:48.347Z,100974.84
2022-08-27T03:25:15.305Z,100970.94
2022-08-27T03:27:42.290Z,100968.34
2022-08-27T03:30:16.934Z,100972.56
2022-08-27T03:32:43.834Z,100971.94
2022-08-27T03:35:11.993Z,100968.88
2022-08-27T03:37:39.379Z,100970.63
2022-08-27T03:40:08.360Z,100965.28
2022-08-27T03:42:36.865Z,100969.03
2022-08-27T03:45:04.763Z,100968.34
2022-08-27T03:47:32.350Z,100973.72
2022-08-27T03:50:00.606Z,100964.16
2022-08-27T03:52:28.265Z,100962.84
2022-08-27T03:54:54.971Z,100958.00
2022-08-27T03:57:25.605Z,100962.88
2022-08-27T03:59:54.371Z,100964.00
2022-08-27T04:02:22.041Z,100961.59
2022-08-27T04:04:48.744Z,100961.06
2022-08-27T04:07:15.305Z,100958.31
2022-08-27T04:09:42.430Z,100956.72
2022-08-27T04:12:12.167Z,100963.34
2022-08-27T04:14:39.447Z,100955.75
2022-08-27T04:17:06.678Z,100960.75
2022-08-27T04:19:38.436Z,100959.00
2022-08-27T04:22:07.927Z,100959.16
2022-08-27T04:24:37.798Z,100961.25
2022-08-27T04:27:06.974Z,100965.63
2022-08-27T04:29:34.804Z,100962.25
2022-08-27T04:32:04.945Z,100969.34
2022-08-27T04:34:33.030Z,100967.25
2022-08-27T04:37:00.108Z,100958.97
2022-08-27T04:39:29.415Z,100963.19
2022-08-27T04:41:59.396Z,100963.84
2022-08-27T04:44:28.618Z,100968.84
2022-08-27T04:46:57.946Z,100976.97
2022-08-27T04:49:25.336Z,100973.56
2022-08-27T04:51:51.864Z,100984.75
2022-08-27T04:54:26.003Z,100979.88
2022-08-27T04:56:59.057Z,100986.84
2022-08-27T04:59:25.587Z,100987.19
2022-08-27T05:01:52.068Z,100987.03
2022-08-27T05:04:19.023Z,100981.00
2022-08-27T05:06:46.799Z,100984.88
2022-08-27T05:09:15.227Z,100988.94
2022-08-27T05:11:43.376Z,100980.69
2022-08-27T05:14:14.361Z,100988.78
2022-08-27T05:16:41.190Z,100978.91
2022-08-27T05:19:10.989Z,100987.03
2022-08-27T05:21:45.712Z,100983.75
2022-08-27T05:24:12.443Z,100985.72
2022-08-27T05:26:39.405Z,100981.16
2022-08-27T05:29:06.847Z,100986.69
2022-08-27T05:31:35.079Z,100987.97
2022-08-27T05:34:10.612Z,100983.91
2022-08-27T05:36:47.978Z,100982.81
2022-08-27T05:39:16.366Z,100988.47
2022-08-27T05:41:43.078Z,100988.94
2022-08-27T05:44:39.001Z,100988.00
2022-08-27T05:46:57.515Z,100985.56
2022-08-27T05:49:24.427Z,100987.81
2022-08-27T05:51:50.966Z,100992.34
2022-08-27T05:54:20.246Z,100995.91
2022-08-27T05:56:49.412Z,100993.81
2022-08-27T05:59:35.028Z,100992.19
2022-08-27T06:02:02.439Z,100992.66
2022-08-27T06:04:28.910Z,100991.06
2022-08-27T06:06:55.445Z,100990.88
2022-08-27T06:09:31.057Z,100989.59
2022-08-27T06:12:00.017Z,100993.13
2022-08-27T06:14:27.205Z,100987.31
2022-08-27T06:16:53.738Z,100995.25
2022-08-27T06:19:20.665Z,100995.09
2022-08-27T06:22:01.189Z,100999.44
2022-08-27T06:24:34.924Z,100996.53
2022-08-27T06:27:01.497Z,101003.03
2022-08-27T06:29:28.266Z,100998.47
2022-08-27T06:31:56.287Z,101003.19
2022-08-27T06:34:23.183Z,101000.13
2022-08-27T06:36:49.805Z,101008.06
2022-08-27T06:39:17.073Z,101004.50
2022-08-27T06:41:44.680Z,101006.91
2022-08-27T06:44:12.663Z,101006.44
2022-08-27T06:46:40.115Z,101009.97
2022-08-27T06:49:07.208Z,101016.00
2022-08-27T06:51:36.212Z,101018.13
2022-08-27T06:54:06.915Z,101016.94
2022-08-27T06:56:33.958Z,101015.84
2022-08-27T06:59:03.886Z,101021.50
2022-08-27T07:01:37.038Z,101018.59
2022-08-27T07:04:08.036Z,101028.66
2022-08-27T07:06:37.850Z,101022.31
2022-08-27T07:09:07.134Z,101028.28
2022-08-27T07:11:33.698Z,101033.50
2022-08-27T07:14:02.081Z,101024.56
2022-08-27T07:16:30.698Z,101031.88
2022-08-27T07:19:01.821Z,101029.28
2022-08-27T07:21:32.789Z,101028.94
2022-08-27T07:24:05.305Z,101039.66
2022-08-27T07:26:36.332Z,101038.03
2022-08-27T07:29:12.257Z,101028.28
2022-08-27T07:31:40.026Z,101025.38
2022-08-27T07:34:10.173Z,101017.94
2022-08-27T07:36:38.697Z,101021.03
2022-08-27T07:39:07.065Z,101021.03
2022-08-27T07:41:58.281Z,101035.94
2022-08-27T07:44:28.148Z,101035.28
2022-08-27T07:47:02.089Z,101032.88
2022-08-27T07:49:29.581Z,101036.09
2022-08-27T07:51:56.175Z,101047.13
2022-08-27T07:54:25.613Z,101041.63
2022-08-27T07:56:55.252Z,101044.53
2022-08-27T07:59:27.118Z,101042.41
2022-08-27T08:01:55.885Z,101039.34
2022-08-27T08:04:25.092Z,101045.22
2022-08-27T08:06:52.007Z,101040.63
2022-08-27T08:09:20.229Z,101048.13
2022-08-27T08:11:47.424Z,101041.75
2022-08-27T08:14:14.120Z,101045.81
2022-08-27T08:16:44.014Z,101042.47
2022-08-27T08:19:11.300Z,101050.56
2022-08-27T08:21:38.785Z,101050.22
2022-08-27T08:24:06.948Z,101046.34
2022-08-27T08:26:33.898Z,101056.22
2022-08-27T08:29:04.986Z,101053.94
2022-08-27T08:31:32.681Z,101058.66
2022-08-27T08:33:59.156Z,101057.53
2022-08-27T08:36:25.684Z,101062.88
2022-08-27T08:38:53.353Z,101059.94
2022-08-27T08:41:33.768Z,101071.59
2022-08-27T08:44:13.303Z,101071.91
2022-08-27T08:46:48.573Z,101069.31
2022-08-27T08:49:33.626Z,101073.69
2022-08-27T08:52:31.674Z,101080.84
2022-08-27T08:55:36.962Z,101073.84
2022-08-27T08:58:13.034Z,101077.75
2022-08-27T09:00:43.794Z,101069.13
2022-08-27T09:03:15.619Z,101074.31
2022-08-27T09:05:48.022Z,101081.72
2022-08-27T09:08:53.117Z,101082.03
2022-08-27T09:11:44.374Z,101082.53
2022-08-27T09:14:22.017Z,101091.91
2022-08-27T09:16:56.443Z,101085.44
2022-08-27T09:19:24.675Z,101086.13
2022-08-27T09:22:03.312Z,101093.88
2022-08-27T09:24:59.298Z,101093.69
2022-08-27T09:27:25.955Z,101097.16
2022-08-27T09:29:56.005Z,101088.25
2022-08-27T09:32:28.596Z,101094.84
2022-08-27T09:35:00.988Z,101097.44
2022-08-27T09:37:34.662Z,101096.63
2022-08-27T09:40:22.601Z,101084.31
2022-08-27T09:42:53.314Z,101087.00
2022-08-27T09:45:27.555Z,101088.66
2022-08-27T09:48:16.077Z,101087.38
2022-08-27T09:50:49.360Z,101095.66
2022-08-27T09:53:21.963Z,101087.53
2022-08-27T09:55:53.530Z,101081.34
2022-08-27T09:58:25.947Z,101087.19
2022-08-27T10:01:22.283Z,101078.69
2022-08-27T10:03:49.684Z,101082.53
2022-08-27T10:06:46.076Z,101075.22
2022-08-27T10:09:47.095Z,101077.25
2022-08-27T10:12:51.875Z,101071.13
2022-08-27T10:15:18.619Z,101069.44
2022-08-27T10:18:08.194Z,101071.56
2022-08-27T10:20:48.186Z,101088.25
2022-08-27T10:23:21.886Z,101078.22
2022-08-27T10:26:00.987Z,101068.50
2022-08-27T10:28:34.680Z,101067.19
2022-08-27T10:31:26.157Z,101074.53
2022-08-27T10:34:07.106Z,101070.53
2022-08-27T10:36:42.325Z,101069.75
2022-08-27T10:39:44.193Z,101062.41
2022-08-27T10:42:22.102Z,101063.22
2022-08-27T10:45:31.439Z,101067.88
2022-08-27T10:48:05.909Z,101072.44
2022-08-27T10:50:55.654Z,101059.56
2022-08-27T10:53:30.278Z,101071.09
2022-08-27T10:56:19.306Z,101071.75
2022-08-27T10:59:02.794Z,101068.84
2022-08-27T11:01:58.199Z,101061.50
2022-08-27T11:04:31.382Z,101061.16
2022-08-27T11:07:07.191Z,101061.97
2022-08-27T11:09:46.381Z,101058.03
2022-08-27T11:12:18.304Z,101070.13
2022-08-27T11:14:58.333Z,101054.56
2022-08-27T11:17:37.251Z,101062.53
2022-08-27T11:20:25.893Z,101064.84
2022-08-27T11:23:12.417Z,101060.56
2022-08-27T11:25:53.820Z,101061.91
2022-08-27T11:28:29.942Z,101061.50
2022-08-27T11:30:59.581Z,101054.94
2022-08-27T11:33:37.161Z,101050.50
2022-08-27T11:36:07.183Z,101063.13
2022-08-27T11:38:58.731Z,101068.69
2022-08-27T11:41:45.256Z,101063.22
2022-08-27T11:44:14.872Z,101068.06
2022-08-27T11:46:48.513Z,101067.84
2022-08-27T11:49:41.426Z,101067.50
2022-08-27T11:52:09.845Z,101070.94
2022-08-27T11:54:46.536Z,101066.91
2022-08-27T11:57:29.200Z,101074.66
2022-08-27T11:59:55.942Z,101074.41
2022-08-27T12:03:17.129Z,101073.50
2022-08-27T12:05:54.419Z,101071.97
2022-08-27T12:08:22.058Z,101070.16
2022-08-27T12:11:07.417Z,101076.50
2022-08-27T12:14:13.080Z,101078.22
2022-08-27T12:16:48.579Z,101076.13
2022-08-27T12:19:44.641Z,101078.09
2022-08-27T12:22:54.522Z,101076.56
2022-08-27T12:25:23.226Z,101086.34
2022-08-27T12:27:59.624Z,101088.19
2022-08-27T12:30:38.803Z,101083.34
2022-08-27T12:33:14.378Z,101091.94
2022-08-27T12:35:47.834Z,101094.19
2022-08-27T12:38:39.382Z,101092.63
2022-08-27T12:41:09.236Z,101097.22
2022-08-27T12:43:41.433Z,101094.94
2022-08-27T12:46:16.028Z,101093.50
2022-08-27T12:48:47.809Z,101090.31
2022-08-27T12:51:27.594Z,101094.06
2022-08-27T12:54:13.541Z,101095.19
2022-08-27T12:56:55.385Z,101101.34
2022-08-27T12:59:49.715Z,101088.22
2022-08-27T13:02:40.825Z,101092.72
2022-08-27T13:05:10.758Z,101086.03
2022-08-27T13:07:44.397Z,101089.13
2022-08-27T13:10:19.126Z,101094.81
2022-08-27T13:12:47.863Z,101097.50
2022-08-27T13:15:16.854Z,101100.38
2022-08-27T13:17:46.375Z,101094.03
2022-08-27T13:20:52.637Z,101085.66
2022-08-27T13:23:24.256Z,101087.44
2022-08-27T13:26:11.722Z,101084.97
2022-08-27T13:28:41.507Z,101087.31
2022-08-27T13:31:11.446Z,101085.25
2022-08-27T13:33:41.481Z,101089.13
2022-08-27T13:36:09.762Z,101088.91
2022-08-27T13:38:41.651Z,101085.44
2022-08-27T13:41:30.789Z,101089.06
2022-08-27T13:44:05.224Z,101088.72
2022-08-27T13:46:32.540Z,101091.41
2022-08-27T13:49:00.313Z,101088.00
2022-08-27T13:51:31.471Z,101083.88
2022-08-27T13:54:13.205Z,101076.56
2022-08-27T13:56:55.388Z,101087.69
2022-08-27T13:59:26.505Z,101090.97
2022-08-27T14:02:11.261Z,101084.13
2022-08-27T14:04:51.686Z,101086.34
2022-08-27T14:07:35.479Z,101092.16
2022-08-27T14:10:27.495Z,101084.03
2022-08-27T14:13:17.102Z,101086.91
2022-08-27T14:15:46.451Z,101082.53
2022-08-27T14:18:54.933Z,101083.78
2022-08-27T14:21:16.651Z,101088.16
2022-08-27T14:23:43.468Z,101087.53
2022-08-27T14:26:10.484Z,101080.25
2022-08-27T14:28:37.693Z,101079.69
2022-08-27T14:31:05.491Z,101085.13
2022-08-27T14:33:32.485Z,101078.50
2022-08-27T14:35:59.710Z,101082.47
2022-08-27T14:38:31.543Z,101075.50
2022-08-27T14:40:58.500Z,101084.78
2022-08-27T14:43:25.529Z,101088.88
2022-08-27T14:45:53.545Z,101092.22
2022-08-27T14:48:28.704Z,101095.06
2022-08-27T14:50:56.277Z,101092.16
2022-08-27T14:53:23.414Z,101095.53
2022-08-27T14:55:51.934Z,101087.25
2022-08-27T14:58:19.352Z,101084.75
2022-08-27T15:00:46.332Z,101086.31
2022-08-27T15:03:13.335Z,101092.28
2022-08-27T15:05:40.265Z,101096.72
2022-08-27T15:08:09.496Z,101088.56
2022-08-27T15:10:40.222Z,101096.81
2022-08-27T15:13:07.367Z,101095.13
2022-08-27T15:15:34.080Z,101093.16
2022-08-27T15:18:00.685Z,101099.63
2022-08-27T15:20:27.152Z,101084.44
2022-08-27T15:22:53.751Z,101089.84
2022-08-27T15:25:21.166Z,101090.88
2022-08-27T15:27:48.114Z,101097.00
2022-08-27T15:30:17.447Z,101086.28
2022-08-27T15:32:47.364Z,101088.63
2022-08-27T15:35:17.485Z,101088.41
2022-08-27T15:37:44.617Z,101089.44
2022-08-27T15:40:16.626Z,101089.22
2022-08-27T15:42:43.581Z,101086.78
2022-08-27T15:45:13.115Z,101086.03
2022-08-27T15:47:40.132Z,101085.22
2022-08-27T15:50:07.575Z,101087.53
2022-08-27T15:52:40.293Z,101084.44
2022-08-27T15:55:18.538Z,101086.03
2022-08-27T15:57:45.118Z,101075.56
2022-08-27T16:00:12.958Z,101084.31
2022-08-27T16:02:41.641Z,101082.78
2022-08-27T16:05:09.471Z,101083.69
2022-08-27T16:07:36.415Z,101077.03
2022-08-27T16:10:04.201Z,101082.56
2022-08-27T16:12:30.698Z,101077.59
2022-08-27T16:14:57.199Z,101081.53
2022-08-27T16:17:24.636Z,101083.13
2022-08-27T16:19:51.405Z,101083.00
2022-08-27T16:22:18.119Z,101090.78
2022-08-27T16:24:45.717Z,101097.81
2022-08-27T16:27:12.703Z,101094.19
2022-08-27T16:29:39.520Z,101094.41
2022-08-27T16:32:11.686Z,101089.22
2022-08-27T16:34:39.871Z,101096.38
2022-08-27T16:37:07.710Z,101094.16
2022-08-27T16:42:10.254Z,101094.72
2022-08-27T16:44:38.681Z,101082.81
2022-08-27T16:47:07.120Z,101084.03
2022-08-27T16:49:52.775Z,101091.31
2022-08-27T16:52:21.253Z,101089.44
2022-08-27T16:54:47.750Z,101088.84
2022-08-27T16:57:14.538Z,101093.28
2022-08-27T16:59:41.078Z,101097.91
2022-08-27T17:02:17.471Z,101097.56
2022-08-27T17:04:49.276Z,101095.00
2022-08-27T17:07:27.922Z,101097.41
2022-08-27T17:09:54.665Z,101089.94
2022-08-27T17:12:24.615Z,101096.00
2022-08-27T17:14:51.166Z,101105.16
2022-08-27T17:17:18.359Z,101103.56
2022-08-27T17:19:45.517Z,101109.53
2022-08-27T17:22:12.984Z,101103.50
2022-08-27T17:24:40.247Z,101111.72
2022-08-27T17:27:07.711Z,101108.16
2022-08-27T17:29:34.253Z,101108.28
2022-08-27T17:32:01.298Z,101108.59
2022-08-27T17:34:28.661Z,101111.38
2022-08-27T17:36:55.205Z,101114.75
2022-08-27T17:39:22.205Z,101117.50
2022-08-27T17:41:51.298Z,101120.13
2022-08-27T17:44:23.454Z,101122.38
2022-08-27T17:46:51.341Z,101112.47
2022-08-27T17:49:18.431Z,101118.81
2022-08-27T17:51:45.918Z,101120.44
2022-08-27T17:54:36.782Z,101126.63
2022-08-27T17:57:10.527Z,101126.19
2022-08-27T17:59:37.151Z,101129.97
2022-08-27T18:02:04.035Z,101127.22
2022-08-27T18:04:30.589Z,101133.25
2022-08-27T18:06:57.046Z,101138.09
2022-08-27T18:09:23.655Z,101137.16
2022-08-27T18:11:50.415Z,101142.19
2022-08-27T18:14:18.484Z,101146.56
2022-08-27T18:16:45.944Z,101149.19
2022-08-27T18:19:13.010Z,101150.22
2022-08-27T18:21:46.365Z,101153.97
2022-08-27T18:24:13.580Z,101162.09
2022-08-27T18:26:40.438Z,101155.25
2022-08-27T18:29:14.537Z,101156.44
2022-08-27T18:31:42.155Z,101161.59
2022-08-27T18:34:09.315Z,101162.78
2022-08-27T18:36:36.696Z,101166.72
2022-08-27T18:39:03.242Z,101169.44
2022-08-27T18:41:30.716Z,101168.13
2022-08-27T18:43:58.322Z,101167.97
2022-08-27T18:46:25.147Z,101169.78
2022-08-27T18:48:51.841Z,101180.34
2022-08-27T18:51:20.706Z,101179.59
2022-08-27T18:53:48.198Z,101182.97
2022-08-27T18:56:18.594Z,101183.28
2022-08-27T18:58:46.069Z,101187.53
2022-08-27T19:01:17.099Z,101192.38
2022-08-27T19:03:47.744Z,101193.22
2022-08-27T19:06:17.474Z,101196.78
2022-08-27T19:08:45.313Z,101193.38
2022-08-27T19:11:12.012Z,101202.75
2022-08-27T19:13:39.562Z,101206.97
2022-08-27T19:16:13.789Z,101207.47
2022-08-27T19:18:41.973Z,101213.91
2022-08-27T19:21:08.926Z,101213.75
2022-08-27T19:23:37.168Z,101218.69
2022-08-27T19:26:06.914Z,101221.28
2022-08-27T19:28:41.987Z,101229.50
2022-08-27T19:31:09.088Z,101223.63
2022-08-27T19:33:38.909Z,101231.41
2022-08-27T19:36:12.519Z,101230.25
2022-08-27T19:38:42.126Z,101234.13
2022-08-27T19:41:12.101Z,101238.44
2022-08-27T19:43:39.683Z,101231.97
2022-08-27T19:46:13.543Z,101236.59
2022-08-27T19:48:40.571Z,101241.88
2022-08-27T19:51:10.558Z,101239.44
2022-08-27T19:53:46.027Z,101250.25
2022-08-27T19:56:13.759Z,101245.50
2022-08-27T19:58:44.546Z,101248.75
2022-08-27T20:01:12.016Z,101254.25
2022-08-27T20:03:38.831Z,101251.50
2022-08-27T20:06:07.802Z,101253.84
2022-08-27T20:08:34.399Z,101251.91
2022-08-27T20:11:01.376Z,101246.34
2022-08-27T20:13:32.367Z,101244.34
2022-08-27T20:16:00.053Z,101237.72
2022-08-27T20:18:26.642Z,101244.34
2022-08-27T20:20:53.319Z,101243.44
2022-08-27T20:23:25.255Z,101249.28
2022-08-27T20:25:52.293Z,101246.00
2022-08-27T20:28:38.893Z,101246.97
2022-08-27T20:31:06.950Z,101248.56
2022-08-27T20:33:34.090Z,101253.69
2022-08-27T20:36:01.385Z,101260.72
2022-08-27T20:38:27.975Z,101260.63
2022-08-27T20:40:54.431Z,101263.22
2022-08-27T20:43:22.431Z,101264.75
2022-08-27T20:45:48.940Z,101267.78
2022-08-27T20:48:16.941Z,101268.28
2022-08-27T20:50:43.724Z,101272.25
2022-08-27T20:53:10.779Z,101273.28
2022-08-27T20:55:41.124Z,101273.72
2022-08-27T20:58:26.673Z,101277.47
2022-08-27T21:00:55.083Z,101280.84
2022-08-27T21:03:23.592Z,101286.22
2022-08-27T21:05:50.125Z,101283.50
2022-08-27T21:08:19.470Z,101282.06
2022-08-27T21:10:50.801Z,101286.13
2022-08-27T21:13:18.614Z,101272.50
2022-08-27T21:15:45.305Z,101274.94
2022-08-27T21:18:13.139Z,101276.38
2022-08-27T21:20:40.626Z,101269.25
2022-08-27T21:23:08.777Z,101280.31
2022-08-27T21:25:39.768Z,101277.56
2022-08-27T21:28:07.974Z,101278.28
2022-08-27T21:30:35.879Z,101280.22
2022-08-27T21:33:05.915Z,101276.72
2022-08-27T21:35:33.048Z,101275.22
2022-08-27T21:38:00.663Z,101272.47
2022-08-27T21:40:28.423Z,101277.25
2022-08-27T21:42:56.350Z,101277.47
2022-08-27T21:45:24.562Z,101275.72
2022-08-27T21:47:51.851Z,101274.91
2022-08-27T21:50:19.794Z,101284.16
2022-08-27T21:52:47.722Z,101276.53
2022-08-27T21:55:14.437Z,101283.94
2022-08-27T21:57:40.953Z,101283.75
2022-08-27T22:00:30.400Z,101288.00
2022-08-27T22:02:57.036Z,101286.50
2022-08-27T22:05:25.899Z,101286.03
2022-08-27T22:07:52.386Z,101288.19
2022-08-27T22:10:19.075Z,101292.22
2022-08-27T22:12:45.633Z,101292.44
2022-08-27T22:15:19.653Z,101288.88
2022-08-27T22:17:51.447Z,101296.31
2022-08-27T22:20:18.889Z,101291.41
2022-08-27T22:22:45.438Z,101286.91
2022-08-27T22:25:12.278Z,101287.22
2022-08-27T22:27:39.627Z,101283.53
2022-08-27T22:30:11.297Z,101286.72
2022-08-27T22:32:39.907Z,101292.66
2022-08-27T22:35:09.377Z,101296.31
2022-08-27T22:37:38.041Z,101301.09
2022-08-27T22:40:08.980Z,101303.22
2022-08-27T22:42:47.374Z,101305.41
2022-08-27T22:45:15.202Z,101307.44
2022-08-27T22:47:43.309Z,101310.97
2022-08-27T22:50:10.884Z,101299.59
2022-08-27T22:52:42.199Z,101306.00
2022-08-27T22:55:34.290Z,101301.09
2022-08-27T22:58:02.130Z,101300.22
2022-08-27T23:00:32.506Z,101305.56
2022-08-27T23:02:59.953Z,101306.81
2022-08-27T23:05:27.151Z,101310.56
2022-08-27T23:07:54.683Z,101303.00
2022-08-27T23:10:24.852Z,101309.44
2022-08-27T23:12:53.625Z,101303.00
2022-08-27T23:15:28.852Z,101310.47
2022-08-27T23:17:56.674Z,101314.34
2022-08-27T23:20:25.399Z,101311.69
2022-08-27T23:22:52.943Z,101309.59
2022-08-27T23:25:43.591Z,101305.44
2022-08-27T23:28:14.425Z,101297.00
2022-08-27T23:30:42.411Z,101300.00
2022-08-27T23:33:09.691Z,101296.81
2022-08-27T23:35:38.143Z,101296.50
2022-08-27T23:38:04.954Z,101291.69
2022-08-27T23:40:34.709Z,101292.50
2022-08-27T23:43:03.663Z,101293.31
2022-08-27T23:45:30.252Z,101295.88
2022-08-27T23:47:56.791Z,101292.69
2022-08-27T23:50:33.638Z,101290.47
2022-08-27T23:53:03.578Z,101288.25
2022-08-27T23:55:30.069Z,101291.84
2022-08-27T23:57:57.754Z,101291.41
